sensor_id;sensor_type;location;lat;lon;timestamp;P1;durP1;ratioP1;P2;durP2;ratioP2
51020;SDS011;38907;45.562;8.856;2023-07-08T00:02:53;13.20;;;7.40;;
51020;SDS011;38907;45.562;8.856;2023-07-08T00:07:56;10.23;;;6.63;;
51020;SDS011;38907;45.562;8.856;2023-07-08T00:12:58;9.63;;;6.43;;
51020;SDS011;38907;45.562;8.856;2023-07-08T00:18:00;8.52;;;5.75;;
51020;SDS011;38907;45.562;8.856;2023-07-08T00:23:11;7.50;;;5.60;;
51020;SDS011;38907;45.562;8.856;2023-07-08T00:28:13;9.55;;;5.80;;
51020;SDS011;38907;45.562;8.856;2023-07-08T00:33:17;11.13;;;6.10;;
51020;SDS011;38907;45.562;8.856;2023-07-08T00:38:21;9.80;;;6.40;;
51020;SDS011;38907;45.562;8.856;2023-07-08T00:43:30;10.13;;;6.82;;
51020;SDS011;38907;45.562;8.856;2023-07-08T00:48:37;10.32;;;6.93;;
51020;SDS011;38907;45.562;8.856;2023-07-08T00:53:42;9.50;;;6.63;;
51020;SDS011;38907;45.562;8.856;2023-07-08T00:58:45;11.80;;;6.75;;
51020;SDS011;38907;45.562;8.856;2023-07-08T01:03:50;15.00;;;7.43;;
51020;SDS011;38907;45.562;8.856;2023-07-08T01:08:56;12.52;;;6.43;;
51020;SDS011;38907;45.562;8.856;2023-07-08T01:14:00;15.70;;;6.30;;
51020;SDS011;38907;45.562;8.856;2023-07-08T01:19:03;13.25;;;6.68;;
51020;SDS011;38907;45.562;8.856;2023-07-08T01:24:09;9.98;;;5.60;;
51020;SDS011;38907;45.562;8.856;2023-07-08T01:29:12;8.73;;;5.50;;
51020;SDS011;38907;45.562;8.856;2023-07-08T01:34:14;8.82;;;5.85;;
51020;SDS011;38907;45.562;8.856;2023-07-08T01:39:19;9.25;;;5.35;;
51020;SDS011;38907;45.562;8.856;2023-07-08T01:44:27;9.15;;;5.40;;
51020;SDS011;38907;45.562;8.856;2023-07-08T01:49:30;11.65;;;5.57;;
51020;SDS011;38907;45.562;8.856;2023-07-08T01:54:36;9.27;;;4.82;;
51020;SDS011;38907;45.562;8.856;2023-07-08T01:59:38;7.82;;;5.03;;
51020;SDS011;38907;45.562;8.856;2023-07-08T02:04:39;12.30;;;5.72;;
51020;SDS011;38907;45.562;8.856;2023-07-08T02:09:43;11.25;;;5.22;;
51020;SDS011;38907;45.562;8.856;2023-07-08T02:14:45;9.43;;;5.50;;
51020;SDS011;38907;45.562;8.856;2023-07-08T02:19:47;8.00;;;5.22;;
51020;SDS011;38907;45.562;8.856;2023-07-08T02:24:50;8.45;;;5.32;;
51020;SDS011;38907;45.562;8.856;2023-07-08T02:29:52;12.40;;;5.57;;
51020;SDS011;38907;45.562;8.856;2023-07-08T02:34:53;8.65;;;5.25;;
51020;SDS011;38907;45.562;8.856;2023-07-08T02:39:57;8.47;;;5.10;;
51020;SDS011;38907;45.562;8.856;2023-07-08T02:44:58;11.88;;;6.75;;
51020;SDS011;38907;45.562;8.856;2023-07-08T02:50:00;17.50;;;7.00;;
51020;SDS011;38907;45.562;8.856;2023-07-08T02:55:04;13.15;;;6.68;;
51020;SDS011;38907;45.562;8.856;2023-07-08T03:00:07;9.20;;;6.32;;
51020;SDS011;38907;45.562;8.856;2023-07-08T03:05:09;12.93;;;6.40;;
51020;SDS011;38907;45.562;8.856;2023-07-08T03:10:12;6.68;;;5.57;;
51020;SDS011;38907;45.562;8.856;2023-07-08T03:15:14;8.32;;;4.72;;
51020;SDS011;38907;45.562;8.856;2023-07-08T03:20:16;8.20;;;5.72;;
51020;SDS011;38907;45.562;8.856;2023-07-08T03:25:20;6.60;;;4.90;;
51020;SDS011;38907;45.562;8.856;2023-07-08T03:30:21;13.73;;;6.32;;
51020;SDS011;38907;45.562;8.856;2023-07-08T03:35:23;12.27;;;6.77;;
51020;SDS011;38907;45.562;8.856;2023-07-08T03:40:27;11.35;;;7.28;;
51020;SDS011;38907;45.562;8.856;2023-07-08T03:45:28;7.55;;;6.22;;
51020;SDS011;38907;45.562;8.856;2023-07-08T03:50:30;9.13;;;6.53;;
51020;SDS011;38907;45.562;8.856;2023-07-08T03:55:33;8.00;;;6.50;;
51020;SDS011;38907;45.562;8.856;2023-07-08T04:00:35;9.65;;;6.53;;
51020;SDS011;38907;45.562;8.856;2023-07-08T04:05:37;10.27;;;7.37;;
51020;SDS011;38907;45.562;8.856;2023-07-08T04:10:41;9.18;;;6.07;;
51020;SDS011;38907;45.562;8.856;2023-07-08T04:15:42;10.88;;;6.43;;
51020;SDS011;38907;45.562;8.856;2023-07-08T04:20:45;8.40;;;6.57;;
51020;SDS011;38907;45.562;8.856;2023-07-08T04:25:54;11.52;;;5.95;;
51020;SDS011;38907;45.562;8.856;2023-07-08T04:30:57;13.77;;;6.50;;
51020;SDS011;38907;45.562;8.856;2023-07-08T04:35:59;11.90;;;7.20;;
51020;SDS011;38907;45.562;8.856;2023-07-08T04:41:02;10.65;;;6.97;;
51020;SDS011;38907;45.562;8.856;2023-07-08T04:46:06;9.80;;;6.35;;
51020;SDS011;38907;45.562;8.856;2023-07-08T04:51:18;9.50;;;6.20;;
51020;SDS011;38907;45.562;8.856;2023-07-08T04:56:21;14.70;;;6.75;;
51020;SDS011;38907;45.562;8.856;2023-07-08T05:01:23;11.90;;;6.75;;
51020;SDS011;38907;45.562;8.856;2023-07-08T05:06:27;10.15;;;6.57;;
51020;SDS011;38907;45.562;8.856;2023-07-08T05:11:30;11.90;;;5.90;;
51020;SDS011;38907;45.562;8.856;2023-07-08T05:16:33;11.23;;;5.63;;
51020;SDS011;38907;45.562;8.856;2023-07-08T05:21:36;9.23;;;6.10;;
51020;SDS011;38907;45.562;8.856;2023-07-08T05:26:39;8.55;;;5.60;;
51020;SDS011;38907;45.562;8.856;2023-07-08T05:31:41;7.25;;;5.45;;
51020;SDS011;38907;45.562;8.856;2023-07-08T05:36:43;8.40;;;6.00;;
51020;SDS011;38907;45.562;8.856;2023-07-08T05:41:46;8.77;;;5.90;;
51020;SDS011;38907;45.562;8.856;2023-07-08T05:46:48;11.30;;;6.93;;
51020;SDS011;38907;45.562;8.856;2023-07-08T05:51:50;13.52;;;6.15;;
51020;SDS011;38907;45.562;8.856;2023-07-08T05:56:54;9.97;;;5.30;;
51020;SDS011;38907;45.562;8.856;2023-07-08T06:01:55;9.80;;;5.38;;
51020;SDS011;38907;45.562;8.856;2023-07-08T06:06:57;16.07;;;5.77;;
51020;SDS011;38907;45.562;8.856;2023-07-08T06:12:01;8.02;;;5.53;;
51020;SDS011;38907;45.562;8.856;2023-07-08T06:17:03;8.63;;;5.70;;
51020;SDS011;38907;45.562;8.856;2023-07-08T06:27:08;9.57;;;5.22;;
51020;SDS011;38907;45.562;8.856;2023-07-08T06:32:10;10.27;;;5.15;;
51020;SDS011;38907;45.562;8.856;2023-07-08T06:37:12;7.03;;;4.35;;
51020;SDS011;38907;45.562;8.856;2023-07-08T06:42:15;6.75;;;4.85;;
51020;SDS011;38907;45.562;8.856;2023-07-08T06:47:17;7.93;;;4.28;;
51020;SDS011;38907;45.562;8.856;2023-07-08T06:52:21;8.65;;;4.57;;
51020;SDS011;38907;45.562;8.856;2023-07-08T06:57:24;10.00;;;4.00;;
51020;SDS011;38907;45.562;8.856;2023-07-08T07:02:26;7.53;;;4.78;;
51020;SDS011;38907;45.562;8.856;2023-07-08T07:07:28;6.63;;;4.32;;
51020;SDS011;38907;45.562;8.856;2023-07-08T07:12:31;7.88;;;4.13;;
51020;SDS011;38907;45.562;8.856;2023-07-08T07:17:33;6.22;;;3.88;;
51020;SDS011;38907;45.562;8.856;2023-07-08T07:22:36;8.25;;;3.67;;
51020;SDS011;38907;45.562;8.856;2023-07-08T07:27:39;5.47;;;3.40;;
51020;SDS011;38907;45.562;8.856;2023-07-08T07:32:41;6.90;;;3.17;;
51020;SDS011;38907;45.562;8.856;2023-07-08T07:37:43;5.25;;;3.45;;
51020;SDS011;38907;45.562;8.856;2023-07-08T07:42:47;4.15;;;2.92;;
51020;SDS011;38907;45.562;8.856;2023-07-08T07:47:49;6.30;;;3.63;;
51020;SDS011;38907;45.562;8.856;2023-07-08T07:52:51;6.53;;;3.38;;
51020;SDS011;38907;45.562;8.856;2023-07-08T07:57:54;6.65;;;3.72;;
51020;SDS011;38907;45.562;8.856;2023-07-08T08:02:56;5.55;;;3.72;;
51020;SDS011;38907;45.562;8.856;2023-07-08T08:07:58;5.15;;;3.58;;
51020;SDS011;38907;45.562;8.856;2023-07-08T08:13:01;5.40;;;3.58;;
51020;SDS011;38907;45.562;8.856;2023-07-08T08:18:03;5.07;;;3.50;;
51020;SDS011;38907;45.562;8.856;2023-07-08T08:28:09;8.13;;;4.97;;
51020;SDS011;38907;45.562;8.856;2023-07-08T08:33:10;5.65;;;3.92;;
51020;SDS011;38907;45.562;8.856;2023-07-08T08:38:12;6.75;;;3.30;;
51020;SDS011;38907;45.562;8.856;2023-07-08T08:43:17;9.70;;;3.70;;
51020;SDS011;38907;45.562;8.856;2023-07-08T08:48:22;4.60;;;3.70;;
51020;SDS011;38907;45.562;8.856;2023-07-08T08:53:26;5.43;;;3.38;;
51020;SDS011;38907;45.562;8.856;2023-07-08T08:58:33;9.23;;;3.90;;
51020;SDS011;38907;45.562;8.856;2023-07-08T09:03:43;5.68;;;4.05;;
51020;SDS011;38907;45.562;8.856;2023-07-08T09:08:49;5.97;;;3.83;;
51020;SDS011;38907;45.562;8.856;2023-07-08T09:13:54;6.88;;;4.30;;
51020;SDS011;38907;45.562;8.856;2023-07-08T09:18:59;8.35;;;4.20;;
51020;SDS011;38907;45.562;8.856;2023-07-08T09:24:08;8.02;;;3.70;;
51020;SDS011;38907;45.562;8.856;2023-07-08T09:29:17;7.38;;;3.70;;
51020;SDS011;38907;45.562;8.856;2023-07-08T09:34:20;5.57;;;4.13;;
51020;SDS011;38907;45.562;8.856;2023-07-08T09:39:23;12.02;;;3.85;;
51020;SDS011;38907;45.562;8.856;2023-07-08T09:44:27;6.25;;;4.07;;
51020;SDS011;38907;45.562;8.856;2023-07-08T09:49:31;6.10;;;3.50;;
51020;SDS011;38907;45.562;8.856;2023-07-08T09:54:34;5.95;;;4.20;;
51020;SDS011;38907;45.562;8.856;2023-07-08T09:59:39;6.70;;;3.58;;
51020;SDS011;38907;45.562;8.856;2023-07-08T10:04:51;10.40;;;3.78;;
51020;SDS011;38907;45.562;8.856;2023-07-08T10:09:54;7.30;;;3.80;;
51020;SDS011;38907;45.562;8.856;2023-07-08T10:15:03;6.28;;;3.80;;
51020;SDS011;38907;45.562;8.856;2023-07-08T10:20:14;9.50;;;3.88;;
51020;SDS011;38907;45.562;8.856;2023-07-08T10:25:22;6.30;;;3.92;;
51020;SDS011;38907;45.562;8.856;2023-07-08T10:30:32;7.57;;;4.28;;
51020;SDS011;38907;45.562;8.856;2023-07-08T10:35:40;5.65;;;4.15;;
51020;SDS011;38907;45.562;8.856;2023-07-08T10:40:47;7.38;;;4.30;;
51020;SDS011;38907;45.562;8.856;2023-07-08T10:45:53;13.07;;;4.18;;
51020;SDS011;38907;45.562;8.856;2023-07-08T10:51:10;4.88;;;3.85;;
51020;SDS011;38907;45.562;8.856;2023-07-08T10:56:20;8.63;;;4.32;;
51020;SDS011;38907;45.562;8.856;2023-07-08T11:01:27;8.60;;;3.92;;
51020;SDS011;38907;45.562;8.856;2023-07-08T11:06:44;4.82;;;3.75;;
51020;SDS011;38907;45.562;8.856;2023-07-08T11:11:51;11.23;;;3.60;;
51020;SDS011;38907;45.562;8.856;2023-07-08T11:17:00;5.90;;;3.92;;
51020;SDS011;38907;45.562;8.856;2023-07-08T11:22:11;6.78;;;3.97;;
51020;SDS011;38907;45.562;8.856;2023-07-08T11:27:16;7.00;;;3.67;;
51020;SDS011;38907;45.562;8.856;2023-07-08T11:32:26;7.13;;;3.92;;
51020;SDS011;38907;45.562;8.856;2023-07-08T11:37:31;4.95;;;3.55;;
51020;SDS011;38907;45.562;8.856;2023-07-08T11:42:35;4.55;;;3.70;;
51020;SDS011;38907;45.562;8.856;2023-07-08T11:47:44;6.70;;;4.05;;
51020;SDS011;38907;45.562;8.856;2023-07-08T11:52:50;5.10;;;3.25;;
51020;SDS011;38907;45.562;8.856;2023-07-08T11:57:54;4.97;;;3.53;;
51020;SDS011;38907;45.562;8.856;2023-07-08T12:03:03;6.35;;;3.80;;
51020;SDS011;38907;45.562;8.856;2023-07-08T12:08:19;6.40;;;3.75;;
51020;SDS011;38907;45.562;8.856;2023-07-08T12:13:21;9.77;;;3.65;;
51020;SDS011;38907;45.562;8.856;2023-07-08T12:18:27;8.55;;;3.80;;
51020;SDS011;38907;45.562;8.856;2023-07-08T12:23:35;5.68;;;3.60;;
51020;SDS011;38907;45.562;8.856;2023-07-08T12:28:37;4.05;;;3.33;;
51020;SDS011;38907;45.562;8.856;2023-07-08T12:33:41;4.93;;;3.53;;
51020;SDS011;38907;45.562;8.856;2023-07-08T12:38:43;7.35;;;3.70;;
51020;SDS011;38907;45.562;8.856;2023-07-08T12:43:46;7.38;;;3.25;;
51020;SDS011;38907;45.562;8.856;2023-07-08T12:48:50;5.15;;;3.50;;
51020;SDS011;38907;45.562;8.856;2023-07-08T12:53:53;5.47;;;3.75;;
51020;SDS011;38907;45.562;8.856;2023-07-08T12:58:56;6.68;;;3.65;;
51020;SDS011;38907;45.562;8.856;2023-07-08T13:04:02;5.35;;;3.40;;
51020;SDS011;38907;45.562;8.856;2023-07-08T13:09:07;4.90;;;3.35;;
51020;SDS011;38907;45.562;8.856;2023-07-08T13:14:19;5.43;;;3.40;;
51020;SDS011;38907;45.562;8.856;2023-07-08T13:19:23;7.38;;;3.45;;
51020;SDS011;38907;45.562;8.856;2023-07-08T13:24:29;4.90;;;3.55;;
51020;SDS011;38907;45.562;8.856;2023-07-08T13:29:33;6.15;;;3.15;;
51020;SDS011;38907;45.562;8.856;2023-07-08T13:34:38;5.95;;;3.63;;
51020;SDS011;38907;45.562;8.856;2023-07-08T13:39:43;8.35;;;3.80;;
51020;SDS011;38907;45.562;8.856;2023-07-08T13:44:46;5.82;;;3.53;;
51020;SDS011;38907;45.562;8.856;2023-07-08T13:49:52;6.78;;;3.17;;
51020;SDS011;38907;45.562;8.856;2023-07-08T13:55:00;8.65;;;4.05;;
51020;SDS011;38907;45.562;8.856;2023-07-08T14:00:04;4.60;;;3.55;;
51020;SDS011;38907;45.562;8.856;2023-07-08T14:05:10;6.47;;;3.92;;
51020;SDS011;38907;45.562;8.856;2023-07-08T14:10:14;6.20;;;3.58;;
51020;SDS011;38907;45.562;8.856;2023-07-08T14:15:16;6.80;;;3.85;;
51020;SDS011;38907;45.562;8.856;2023-07-08T14:20:19;9.05;;;3.97;;
51020;SDS011;38907;45.562;8.856;2023-07-08T14:25:25;10.95;;;3.65;;
51020;SDS011;38907;45.562;8.856;2023-07-08T14:30:28;6.72;;;3.65;;
51020;SDS011;38907;45.562;8.856;2023-07-08T14:35:31;3.83;;;3.33;;
51020;SDS011;38907;45.562;8.856;2023-07-08T14:40:34;6.55;;;3.90;;
51020;SDS011;38907;45.562;8.856;2023-07-08T14:45:38;7.22;;;3.40;;
51020;SDS011;38907;45.562;8.856;2023-07-08T14:50:43;4.95;;;3.53;;
51020;SDS011;38907;45.562;8.856;2023-07-08T14:55:45;7.90;;;3.83;;
51020;SDS011;38907;45.562;8.856;2023-07-08T15:00:49;4.82;;;3.58;;
51020;SDS011;38907;45.562;8.856;2023-07-08T15:05:53;5.30;;;3.75;;
51020;SDS011;38907;45.562;8.856;2023-07-08T15:10:55;7.53;;;3.85;;
51020;SDS011;38907;45.562;8.856;2023-07-08T15:15:58;6.85;;;3.97;;
51020;SDS011;38907;45.562;8.856;2023-07-08T15:21:02;7.18;;;3.53;;
51020;SDS011;38907;45.562;8.856;2023-07-08T15:26:04;9.15;;;3.70;;
51020;SDS011;38907;45.562;8.856;2023-07-08T15:31:08;5.72;;;3.60;;
51020;SDS011;38907;45.562;8.856;2023-07-08T15:36:13;4.95;;;3.53;;
51020;SDS011;38907;45.562;8.856;2023-07-08T15:41:17;4.82;;;3.55;;
51020;SDS011;38907;45.562;8.856;2023-07-08T15:46:21;6.43;;;3.75;;
51020;SDS011;38907;45.562;8.856;2023-07-08T15:51:29;6.55;;;3.42;;
51020;SDS011;38907;45.562;8.856;2023-07-08T15:56:30;5.55;;;3.88;;
51020;SDS011;38907;45.562;8.856;2023-07-08T16:01:32;5.40;;;3.40;;
51020;SDS011;38907;45.562;8.856;2023-07-08T16:06:36;6.43;;;3.55;;
51020;SDS011;38907;45.562;8.856;2023-07-08T16:11:38;5.35;;;3.63;;
51020;SDS011;38907;45.562;8.856;2023-07-08T16:16:41;5.88;;;3.75;;
51020;SDS011;38907;45.562;8.856;2023-07-08T16:21:45;5.28;;;3.40;;
51020;SDS011;38907;45.562;8.856;2023-07-08T16:26:47;5.70;;;3.75;;
51020;SDS011;38907;45.562;8.856;2023-07-08T16:31:49;10.35;;;3.90;;
51020;SDS011;38907;45.562;8.856;2023-07-08T16:36:52;5.75;;;3.53;;
51020;SDS011;38907;45.562;8.856;2023-07-08T16:41:54;11.20;;;3.65;;
51020;SDS011;38907;45.562;8.856;2023-07-08T16:46:56;5.47;;;3.88;;
51020;SDS011;38907;45.562;8.856;2023-07-08T16:52:00;6.68;;;3.33;;
51020;SDS011;38907;45.562;8.856;2023-07-08T16:57:02;7.10;;;3.75;;
51020;SDS011;38907;45.562;8.856;2023-07-08T17:02:09;6.70;;;4.18;;
51020;SDS011;38907;45.562;8.856;2023-07-08T17:07:14;8.23;;;3.72;;
51020;SDS011;38907;45.562;8.856;2023-07-08T17:12:16;9.63;;;3.60;;
51020;SDS011;38907;45.562;8.856;2023-07-08T17:17:18;11.68;;;3.65;;
51020;SDS011;38907;45.562;8.856;2023-07-08T17:22:22;10.70;;;4.00;;
51020;SDS011;38907;45.562;8.856;2023-07-08T17:27:24;11.23;;;3.70;;
51020;SDS011;38907;45.562;8.856;2023-07-08T17:32:26;7.18;;;3.65;;
51020;SDS011;38907;45.562;8.856;2023-07-08T17:37:30;5.65;;;3.42;;
51020;SDS011;38907;45.562;8.856;2023-07-08T17:42:32;5.28;;;3.80;;
51020;SDS011;38907;45.562;8.856;2023-07-08T17:47:34;7.30;;;4.03;;
51020;SDS011;38907;45.562;8.856;2023-07-08T17:52:37;7.05;;;3.72;;
51020;SDS011;38907;45.562;8.856;2023-07-08T17:57:39;9.70;;;4.28;;
51020;SDS011;38907;45.562;8.856;2023-07-08T18:02:42;9.25;;;3.90;;
51020;SDS011;38907;45.562;8.856;2023-07-08T18:07:46;5.95;;;3.63;;
51020;SDS011;38907;45.562;8.856;2023-07-08T18:12:50;7.38;;;3.83;;
51020;SDS011;38907;45.562;8.856;2023-07-08T18:17:53;8.63;;;3.95;;
51020;SDS011;38907;45.562;8.856;2023-07-08T18:22:58;6.63;;;4.13;;
51020;SDS011;38907;45.562;8.856;2023-07-08T18:28:04;5.30;;;3.75;;
51020;SDS011;38907;45.562;8.856;2023-07-08T18:33:08;7.70;;;3.67;;
51020;SDS011;38907;45.562;8.856;2023-07-08T18:38:13;8.98;;;4.35;;
51020;SDS011;38907;45.562;8.856;2023-07-08T18:43:16;10.02;;;4.00;;
51020;SDS011;38907;45.562;8.856;2023-07-08T18:48:20;5.43;;;3.55;;
51020;SDS011;38907;45.562;8.856;2023-07-08T18:53:24;7.50;;;4.18;;
51020;SDS011;38907;45.562;8.856;2023-07-08T18:58:26;5.72;;;4.07;;
51020;SDS011;38907;45.562;8.856;2023-07-08T19:03:28;7.03;;;3.85;;
51020;SDS011;38907;45.562;8.856;2023-07-08T19:08:33;5.07;;;4.10;;
51020;SDS011;38907;45.562;8.856;2023-07-08T19:13:34;5.30;;;4.28;;
51020;SDS011;38907;45.562;8.856;2023-07-08T19:23:40;12.13;;;4.80;;
51020;SDS011;38907;45.562;8.856;2023-07-08T19:28:45;7.03;;;3.85;;
51020;SDS011;38907;45.562;8.856;2023-07-08T19:33:47;9.13;;;4.43;;
51020;SDS011;38907;45.562;8.856;2023-07-08T19:38:51;5.60;;;4.28;;
51020;SDS011;38907;45.562;8.856;2023-07-08T19:43:53;6.38;;;4.22;;
51020;SDS011;38907;45.562;8.856;2023-07-08T19:48:56;6.25;;;4.25;;
51020;SDS011;38907;45.562;8.856;2023-07-08T19:54:00;6.50;;;4.07;;
51020;SDS011;38907;45.562;8.856;2023-07-08T19:59:01;9.57;;;4.70;;
51020;SDS011;38907;45.562;8.856;2023-07-08T20:04:03;9.02;;;3.90;;
51020;SDS011;38907;45.562;8.856;2023-07-08T20:14:10;7.00;;;5.07;;
51020;SDS011;38907;45.562;8.856;2023-07-08T20:19:21;6.35;;;4.57;;
51020;SDS011;38907;45.562;8.856;2023-07-08T20:24:27;4.60;;;3.60;;
51020;SDS011;38907;45.562;8.856;2023-07-08T20:29:29;10.55;;;4.07;;
51020;SDS011;38907;45.562;8.856;2023-07-08T20:34:31;5.90;;;4.57;;
51020;SDS011;38907;45.562;8.856;2023-07-08T20:39:34;4.90;;;3.90;;
51020;SDS011;38907;45.562;8.856;2023-07-08T20:44:36;7.28;;;4.20;;
51020;SDS011;38907;45.562;8.856;2023-07-08T20:49:38;5.07;;;3.75;;
51020;SDS011;38907;45.562;8.856;2023-07-08T20:54:41;7.35;;;4.18;;
51020;SDS011;38907;45.562;8.856;2023-07-08T20:59:43;8.55;;;4.20;;
51020;SDS011;38907;45.562;8.856;2023-07-08T21:04:44;5.43;;;4.38;;
51020;SDS011;38907;45.562;8.856;2023-07-08T21:09:48;7.53;;;4.95;;
51020;SDS011;38907;45.562;8.856;2023-07-08T21:14:50;10.68;;;4.68;;
51020;SDS011;38907;45.562;8.856;2023-07-08T21:19:52;10.35;;;5.00;;
51020;SDS011;38907;45.562;8.856;2023-07-08T21:24:55;7.03;;;4.88;;
51020;SDS011;38907;45.562;8.856;2023-07-08T21:29:57;10.60;;;4.85;;
51020;SDS011;38907;45.562;8.856;2023-07-08T21:34:59;12.02;;;5.03;;
51020;SDS011;38907;45.562;8.856;2023-07-08T21:40:03;6.28;;;4.72;;
51020;SDS011;38907;45.562;8.856;2023-07-08T21:45:09;8.02;;;4.60;;
51020;SDS011;38907;45.562;8.856;2023-07-08T21:50:24;5.13;;;4.18;;
51020;SDS011;38907;45.562;8.856;2023-07-08T21:55:29;8.20;;;4.70;;
51020;SDS011;38907;45.562;8.856;2023-07-08T22:00:31;8.25;;;4.82;;
51020;SDS011;38907;45.562;8.856;2023-07-08T22:05:35;8.25;;;4.25;;
51020;SDS011;38907;45.562;8.856;2023-07-08T22:10:38;8.55;;;4.20;;
51020;SDS011;38907;45.562;8.856;2023-07-08T22:15:41;7.25;;;4.82;;
51020;SDS011;38907;45.562;8.856;2023-07-08T22:20:43;11.85;;;5.47;;
51020;SDS011;38907;45.562;8.856;2023-07-08T22:30:48;16.45;;;7.15;;
51020;SDS011;38907;45.562;8.856;2023-07-08T22:35:50;9.85;;;6.03;;
51020;SDS011;38907;45.562;8.856;2023-07-08T22:40:53;8.80;;;5.85;;
51020;SDS011;38907;45.562;8.856;2023-07-08T22:45:55;8.65;;;6.25;;
51020;SDS011;38907;45.562;8.856;2023-07-08T22:50:57;8.88;;;5.97;;
51020;SDS011;38907;45.562;8.856;2023-07-08T22:56:03;7.80;;;5.88;;
51020;SDS011;38907;45.562;8.856;2023-07-08T23:01:05;8.27;;;5.30;;
51020;SDS011;38907;45.562;8.856;2023-07-08T23:06:08;8.55;;;5.35;;
51020;SDS011;38907;45.562;8.856;2023-07-08T23:11:13;9.63;;;5.80;;
51020;SDS011;38907;45.562;8.856;2023-07-08T23:16:20;11.65;;;5.97;;
51020;SDS011;38907;45.562;8.856;2023-07-08T23:21:27;7.78;;;6.10;;
51020;SDS011;38907;45.562;8.856;2023-07-08T23:26:31;7.18;;;5.50;;
51020;SDS011;38907;45.562;8.856;2023-07-08T23:31:36;11.15;;;6.18;;
51020;SDS011;38907;45.562;8.856;2023-07-08T23:36:38;9.75;;;5.40;;
51020;SDS011;38907;45.562;8.856;2023-07-08T23:41:42;6.70;;;5.25;;
51020;SDS011;38907;45.562;8.856;2023-07-08T23:46:45;7.07;;;5.10;;
51020;SDS011;38907;45.562;8.856;2023-07-08T23:51:51;9.15;;;5.13;;
51020;SDS011;38907;45.562;8.856;2023-07-08T23:56:56;12.05;;;5.03;;
